Time;durP1;ratioP1;P1;durP2;ratioP2;P2;SDS_P1;SDS_P2;PMS_P1;PMS_P2;Temp;Humidity;BMP_temperature;BMP_pressure;BME280_temperature;BME280_humidity;BME280_pressure;Samples;Min_cycle;Max_cycle;Signal;HPM_P1;HPM_P2
2023/09/08 00:01:43;;;;;;;7.82;3.60;;;;;;;12.70;61.60;99694.78;5116315;27;20528;-77
2023/09/08 00:04:09;;;;;;;5.88;3.22;;;;;;;12.71;61.66;99686.66;5116791;27;20054;-68
2023/09/08 00:06:34;;;;;;;10.45;3.90;;;;;;;12.70;62.00;99716.19;5108611;27;20053;-68
2023/09/08 00:08:59;;;;;;;6.50;3.30;;;;;;;12.70;62.00;99676.91;5105947;27;20054;-76
2023/09/08 00:11:24;;;;;;;6.07;3.17;;;;;;;12.69;61.63;99679.72;5084633;27;20043;-73
2023/09/08 00:13:50;;;;;;;12.00;3.20;;;;;;;12.69;62.07;99677.03;5109751;27;20042;-69
2023/09/08 00:16:15;;;;;;;7.90;2.92;;;;;;;12.69;62.04;99677.03;5088470;27;20050;-69
2023/09/08 00:18:40;;;;;;;8.52;2.85;;;;;;;12.68;61.98;99676.19;5088451;27;20489;-69
2023/09/08 00:21:06;;;;;;;5.15;2.83;;;;;;;12.68;62.30;99681.53;5109606;27;20494;-68
2023/09/08 00:23:31;;;;;;;6.13;2.35;;;;;;;12.70;62.23;99668.03;5087940;27;20402;-67
2023/09/08 00:25:57;;;;;;;7.78;3.35;;;;;;;12.70;62.15;99668.03;5106865;27;20050;-68
2023/09/08 00:28:22;;;;;;;6.03;3.17;;;;;;;12.68;62.69;99665.47;5091544;27;20047;-68
2023/09/08 00:30:47;;;;;;;4.63;2.97;;;;;;;12.67;62.47;99695.03;5115795;27;20118;-68
2023/09/08 00:33:13;;;;;;;6.85;2.63;;;;;;;12.66;62.05;99667.41;5098997;27;20500;-68
2023/09/08 00:35:39;;;;;;;6.05;2.92;;;;;;;12.67;62.22;99684.31;5078787;27;20049;-67
2023/09/08 00:38:04;;;;;;;7.43;2.75;;;;;;;12.68;62.39;99672.66;5099293;27;20053;-66
2023/09/08 00:40:29;;;;;;;12.27;4.10;;;;;;;12.67;62.58;99679.81;5116953;27;20046;-67
2023/09/08 00:42:55;;;;;;;5.35;3.10;;;;;;;12.67;62.74;99677.16;5098801;27;20500;-67
2023/09/08 00:45:20;;;;;;;6.28;3.15;;;;;;;12.64;62.80;99664.00;5099460;27;20042;-70
2023/09/08 00:47:45;;;;;;;5.50;2.70;;;;;;;12.63;63.48;99673.03;5116264;27;20038;-67
2023/09/08 00:50:11;;;;;;;5.32;2.78;;;;;;;12.59;63.74;99676.91;5098945;27;20058;-68
2023/09/08 00:52:37;;;;;;;6.38;3.03;;;;;;;12.53;63.97;99672.03;5097760;27;20049;-68
2023/09/08 00:55:02;;;;;;;6.30;3.15;;;;;;;12.48;64.65;99682.25;5098124;27;20050;-67
2023/09/08 00:57:31;;;;;;;5.78;2.90;;;;;;;12.43;65.16;99692.44;5117488;27;20038;-70
2023/09/08 00:59:57;;;;;;;6.53;3.30;;;;;;;12.36;65.24;99664.50;5117205;27;20040;-68
2023/09/08 01:02:22;;;;;;;8.40;3.40;;;;;;;12.35;65.30;99658.31;5098505;27;20047;-68
2023/09/08 01:04:47;;;;;;;8.05;3.50;;;;;;;12.33;65.70;99680.78;5098866;27;20038;-68
2023/09/08 01:07:14;;;;;;;8.00;3.13;;;;;;;12.35;65.68;99654.78;5113883;27;20058;-68
2023/09/08 01:09:40;;;;;;;5.38;3.03;;;;;;;12.35;66.07;99660.13;5098466;27;20058;-68
2023/09/08 01:12:07;;;;;;;5.10;2.88;;;;;;;12.35;65.74;99663.66;5117934;27;20046;-70
2023/09/08 01:14:32;;;;;;;4.95;2.72;;;;;;;12.39;65.73;99656.25;5117327;27;20042;-69
2023/09/08 01:16:57;;;;;;;2.80;1.75;;;;;;;12.39;65.47;99652.72;5099247;27;20049;-67
2023/09/08 01:19:23;;;;;;;2.92;2.03;;;;;;;12.36;65.69;99675.19;5099213;27;20050;-66
2023/09/08 01:22:06;;;;;;;3.80;2.08;;;;;;;12.38;65.47;99646.53;5116759;27;20045;-67
2023/09/08 01:24:48;;;;;;;4.32;2.25;;;;;;;12.39;65.67;99642.88;5099678;27;20043;-69
2023/09/08 01:27:16;;;;;;;3.35;1.42;;;;;;;12.38;65.88;99689.31;5120375;27;20137;-66
2023/09/08 01:29:41;;;;;;;3.45;1.73;;;;;;;12.38;65.53;99662.56;5100813;27;20421;-67
2023/09/08 01:32:08;;;;;;;2.28;2.08;;;;;;;12.38;65.98;99659.91;5100242;27;20531;-66
2023/09/08 01:34:34;;;;;;;2.42;1.75;;;;;;;12.39;65.72;99663.41;5118551;27;20496;-68
2023/09/08 01:37:03;;;;;;;3.03;2.05;;;;;;;12.36;65.87;99681.41;5100859;27;20042;-68
2023/09/08 01:39:29;;;;;;;4.70;2.53;;;;;;;12.34;66.33;99661.09;5100216;27;20515;-67
2023/09/08 01:41:54;;;;;;;3.17;2.22;;;;;;;12.28;66.96;99661.59;5100570;27;20066;-70
2023/09/08 01:44:19;;;;;;;1.90;1.63;;;;;;;12.23;67.62;99653.91;5099397;27;20046;-70
2023/09/08 01:46:44;;;;;;;2.60;1.83;;;;;;;12.17;67.87;99658.91;5095283;27;20046;-71
2023/09/08 01:49:09;;;;;;;2.45;1.67;;;;;;;12.09;67.79;99645.25;5096425;27;20043;-71
2023/09/08 01:51:35;;;;;;;4.15;2.33;;;;;;;12.00;69.08;99636.16;5117096;27;20030;-72
2023/09/08 01:54:00;;;;;;;4.25;1.65;;;;;;;11.95;69.84;99639.19;5094212;27;20378;-71
2023/09/08 01:56:26;;;;;;;4.30;2.00;;;;;;;11.91;69.58;99631.53;5080694;27;20373;-72
2023/09/08 01:58:51;;;;;;;5.70;2.30;;;;;;;11.87;70.38;99652.25;5119712;27;20042;-72
2023/09/08 02:01:16;;;;;;;3.58;2.15;;;;;;;11.89;70.95;99628.97;5088770;27;20051;-69
2023/09/08 02:03:41;;;;;;;3.97;2.05;;;;;;;11.87;70.57;99624.69;5118337;27;20042;-70
2023/09/08 02:06:06;;;;;;;2.78;1.92;;;;;;;11.86;71.00;99623.84;5097952;27;20046;-70
2023/09/08 02:08:32;;;;;;;3.25;2.20;;;;;;;11.83;71.26;99617.91;5096655;27;20054;-70
2023/09/08 02:10:58;;;;;;;4.55;2.28;;;;;;;11.81;71.57;99610.00;5097408;27;20050;-71
2023/09/08 02:13:23;;;;;;;3.22;2.30;;;;;;;11.78;71.92;99618.25;5116048;27;20046;-72
2023/09/08 02:15:48;;;;;;;5.03;1.85;;;;;;;11.78;72.08;99609.38;5111670;27;20045;-71
2023/09/08 02:18:14;;;;;;;3.90;1.73;;;;;;;11.75;72.54;99610.47;5096138;27;20042;-70
2023/09/08 02:20:59;;;;;;;2.65;1.90;;;;;;;11.75;72.34;99620.25;5086666;27;20042;-72
2023/09/08 02:23:24;;;;;;;3.42;2.00;;;;;;;11.74;72.27;99608.72;5096388;27;20046;-73
2023/09/08 02:25:50;;;;;;;4.28;2.47;;;;;;;11.74;72.94;99607.91;5096328;27;20042;-71
2023/09/08 02:28:15;;;;;;;2.50;2.17;;;;;;;11.71;73.15;99603.66;5077545;27;20046;-70
2023/09/08 02:30:40;;;;;;;3.30;1.83;;;;;;;11.69;73.38;99605.56;5097746;27;20046;-72
2023/09/08 02:33:06;;;;;;;6.60;2.33;;;;;;;11.69;73.41;99594.91;5095399;27;20047;-71
2023/09/08 02:35:36;;;;;;;5.57;2.65;;;;;;;11.71;73.04;99587.63;5096611;27;20362;-71
2023/09/08 02:38:02;;;;;;;4.20;2.00;;;;;;;11.69;73.24;99584.22;5094580;27;20038;-71
2023/09/08 02:40:27;;;;;;;6.28;2.60;;;;;;;11.67;73.49;99586.16;5097442;27;20929;-73
2023/09/08 02:42:52;;;;;;;2.55;2.03;;;;;;;11.65;73.80;99572.91;5091821;27;20057;-76
2023/09/08 02:45:17;;;;;;;3.28;2.08;;;;;;;11.67;73.97;99569.28;5095493;27;20493;-74
2023/09/08 02:47:43;;;;;;;3.40;2.33;;;;;;;11.66;73.45;99568.41;5078019;27;20049;-70
2023/09/08 02:50:08;;;;;;;5.18;2.15;;;;;;;11.66;73.45;99589.78;5091386;27;20489;-72
2023/09/08 02:52:34;;;;;;;4.13;2.03;;;;;;;11.65;73.73;99577.41;5081402;27;20046;-74
2023/09/08 02:54:59;;;;;;;2.72;2.42;;;;;;;11.65;73.21;99610.28;5116519;27;20043;-72
2023/09/08 02:57:24;;;;;;;3.50;1.88;;;;;;;11.67;73.73;99575.47;5116044;27;20050;-72
2023/09/08 02:59:51;;;;;;;3.45;2.10;;;;;;;11.68;73.33;99577.16;5080797;27;20050;-71
2023/09/08 03:02:16;;;;;;;6.05;1.80;;;;;;;11.71;73.25;99581.44;5077616;28;20132;-70
2023/09/08 03:04:41;;;;;;;2.60;2.10;;;;;;;11.72;73.48;99577.78;5086697;27;20046;-70
2023/09/08 03:07:07;;;;;;;2.95;2.15;;;;;;;11.73;73.24;99580.34;5097470;27;20050;-70
2023/09/08 03:09:33;;;;;;;2.88;2.13;;;;;;;11.76;73.16;99585.47;5097024;27;20056;-69
2023/09/08 03:11:59;;;;;;;3.30;2.20;;;;;;;11.78;73.17;99572.84;5115520;27;20496;-71
2023/09/08 03:14:24;;;;;;;4.85;2.63;;;;;;;11.82;72.81;99574.31;5115697;27;20439;-73
2023/09/08 03:16:49;;;;;;;2.78;1.75;;;;;;;11.87;73.01;99568.59;5116524;27;20043;-72
2023/09/08 03:19:14;;;;;;;5.47;2.60;;;;;;;11.90;72.60;99569.22;5116363;27;20035;-73
2023/09/08 03:21:39;;;;;;;3.05;1.70;;;;;;;11.96;72.80;99571.41;5113690;27;20052;-73
2023/09/08 03:24:05;;;;;;;3.33;2.17;;;;;;;12.02;72.31;99569.22;5074668;28;20039;-73
2023/09/08 03:26:32;;;;;;;2.92;1.85;;;;;;;12.07;71.91;99572.41;5091218;27;20039;-73
2023/09/08 03:28:59;;;;;;;5.53;2.33;;;;;;;12.09;71.59;99576.63;5115808;27;20057;-71
2023/09/08 03:31:25;;;;;;;4.38;2.05;;;;;;;12.12;71.33;99570.22;5097232;27;20439;-72
2023/09/08 03:33:50;;;;;;;1.77;1.40;;;;;;;12.15;71.22;99580.66;5115687;27;20476;-72
2023/09/08 03:36:16;;;;;;;3.78;2.38;;;;;;;12.20;71.39;99567.78;5115586;27;20042;-72
2023/09/08 03:38:42;;;;;;;4.28;2.33;;;;;;;12.19;70.80;99556.22;5097272;27;20049;-73
2023/09/08 03:41:08;;;;;;;2.45;2.05;;;;;;;12.22;70.98;99561.34;5062159;27;20046;-71
2023/09/08 03:43:34;;;;;;;3.50;1.95;;;;;;;12.23;70.43;99556.84;5097418;27;20043;-71
2023/09/08 03:46:00;;;;;;;1.92;1.83;;;;;;;12.21;70.34;99559.63;5097054;27;20463;-71
2023/09/08 03:48:26;;;;;;;3.30;2.40;;;;;;;12.20;70.15;99559.75;5097174;27;20050;-71
2023/09/08 03:50:51;;;;;;;2.67;1.70;;;;;;;12.19;69.85;99556.22;5097423;27;20043;-71
2023/09/08 03:53:16;;;;;;;5.95;2.53;;;;;;;12.17;70.08;99547.50;5115571;27;20047;-72
2023/09/08 03:55:42;;;;;;;4.50;2.03;;;;;;;12.16;70.71;99550.31;5115765;27;20496;-72
2023/09/08 03:58:07;;;;;;;5.45;1.95;;;;;;;12.16;70.41;99552.97;5115667;27;20068;-72
2023/09/08 04:00:32;;;;;;;3.55;1.80;;;;;;;12.19;70.88;99555.41;5096942;27;20042;-72
2023/09/08 04:02:59;;;;;;;3.08;2.22;;;;;;;12.22;70.67;99550.66;5115622;27;20046;-72
2023/09/08 04:05:24;;;;;;;3.17;2.15;;;;;;;12.23;70.30;99572.88;5096719;27;20038;-72
2023/09/08 04:07:49;;;;;;;4.18;2.10;;;;;;;12.23;70.06;99540.81;5096624;27;20066;-72
2023/09/08 04:10:16;;;;;;;4.07;1.95;;;;;;;12.21;69.96;99548.94;5079396;27;20046;-72
2023/09/08 04:12:42;;;;;;;3.33;2.60;;;;;;;12.24;69.72;99547.84;5096677;27;20038;-72
2023/09/08 04:15:08;;;;;;;4.18;2.20;;;;;;;12.26;70.19;99535.22;5096835;27;20050;-71
2023/09/08 04:17:35;;;;;;;3.92;2.15;;;;;;;12.28;69.68;99542.16;5097674;27;20050;-71
2023/09/08 04:20:00;;;;;;;2.80;1.95;;;;;;;12.32;69.76;99532.03;5118792;27;20038;-71
2023/09/08 04:22:26;;;;;;;4.70;2.33;;;;;;;12.31;69.79;99554.41;5118881;27;20046;-71
2023/09/08 04:24:54;;;;;;;3.58;2.22;;;;;;;12.31;69.25;99549.06;5082915;27;20523;-71
2023/09/08 04:27:19;;;;;;;3.83;2.80;;;;;;;12.30;69.20;99536.69;5083513;27;20046;-71
2023/09/08 04:29:44;;;;;;;3.58;2.05;;;;;;;12.29;69.35;99529.66;5099564;27;20446;-72
2023/09/08 04:32:09;;;;;;;3.60;2.15;;;;;;;12.30;68.87;99532.16;5100056;27;20042;-72
2023/09/08 04:34:38;;;;;;;1.73;1.30;;;;;;;12.28;68.43;99565.34;5118439;27;20046;-72
2023/09/08 04:37:03;;;;;;;3.97;2.33;;;;;;;12.30;68.14;99537.50;5100439;27;20038;-73
2023/09/08 04:39:28;;;;;;;6.80;2.65;;;;;;;12.30;68.35;99531.34;5082591;27;20097;-73
2023/09/08 04:41:54;;;;;;;3.40;2.13;;;;;;;12.33;68.13;99547.97;5100253;27;20413;-72
2023/09/08 04:44:19;;;;;;;8.02;2.47;;;;;;;12.41;67.61;99527.81;5082785;27;20053;-71
2023/09/08 04:46:45;;;;;;;2.85;2.03;;;;;;;12.43;67.93;99520.47;5083269;27;20050;-72
2023/09/08 04:49:12;;;;;;;3.85;2.42;;;;;;;12.48;67.89;99524.50;5100031;27;20408;-72
2023/09/08 04:51:37;;;;;;;4.38;2.40;;;;;;;12.60;67.97;99511.97;5099965;27;20043;-72
2023/09/08 04:54:03;;;;;;;3.20;2.08;;;;;;;12.82;67.86;99517.25;5081791;27;20054;-70
2023/09/08 04:56:28;;;;;;;3.25;1.88;;;;;;;13.06;66.54;99519.69;5099774;27;20049;-71
2023/09/08 04:58:55;;;;;;;2.85;2.00;;;;;;;13.32;66.11;99510.34;5098742;27;20042;-71
2023/09/08 05:01:20;;;;;;;4.20;2.25;;;;;;;13.61;65.00;99515.06;5099890;27;20431;-72
2023/09/08 05:03:48;;;;;;;3.10;1.85;;;;;;;13.84;64.22;99505.03;5099592;27;20045;-71
2023/09/08 05:06:13;;;;;;;4.30;1.70;;;;;;;13.98;63.38;99512.72;5078266;27;20493;-71
2023/09/08 05:08:39;;;;;;;3.45;1.70;;;;;;;14.05;62.27;99525.44;5079020;27;20051;-71
2023/09/08 05:11:05;;;;;;;2.38;1.83;;;;;;;14.13;61.95;99508.66;5096294;27;20050;-72
2023/09/08 05:13:30;;;;;;;2.25;1.90;;;;;;;14.21;62.03;99498.13;5096174;27;20050;-71
2023/09/08 05:16:00;;;;;;;3.28;2.13;;;;;;;14.36;61.14;99490.53;5078653;27;20058;-72
2023/09/08 05:18:28;;;;;;;4.90;2.70;;;;;;;14.59;60.83;99496.56;5096103;27;20039;-72
2023/09/08 05:20:54;;;;;;;6.13;2.55;;;;;;;14.89;60.14;99485.72;5061415;27;20524;-71
2023/09/08 05:23:20;;;;;;;9.50;2.97;;;;;;;15.08;58.94;99474.13;5099351;27;20516;-71
2023/09/08 05:25:45;;;;;;;2.72;2.22;;;;;;;15.24;57.65;99471.69;5099279;27;20405;-72
2023/09/08 05:28:11;;;;;;;2.92;2.50;;;;;;;15.36;57.31;99475.91;5099404;27;20046;-72
2023/09/08 05:30:36;;;;;;;2.92;2.08;;;;;;;15.42;56.57;99490.63;5117972;27;20049;-72
2023/09/08 05:33:02;;;;;;;2.88;1.85;;;;;;;15.46;56.44;99470.56;5118135;27;20073;-74
2023/09/08 05:35:27;;;;;;;5.30;2.78;;;;;;;15.40;56.16;99474.66;5082160;27;20937;-72
2023/09/08 05:37:52;;;;;;;5.50;2.45;;;;;;;15.36;56.75;99469.69;5117606;27;20045;-72
2023/09/08 05:40:18;;;;;;;2.25;1.65;;;;;;;15.35;56.60;99473.41;5099181;27;20386;-72
2023/09/08 05:42:44;;;;;;;6.03;2.75;;;;;;;15.36;56.66;99467.00;5081367;27;20046;-71
2023/09/08 05:45:10;;;;;;;4.00;2.15;;;;;;;15.37;56.24;99461.50;5081345;27;20039;-72
2023/09/08 05:47:36;;;;;;;5.95;2.17;;;;;;;15.40;56.08;99461.22;5081299;27;20057;-73
2023/09/08 05:50:02;;;;;;;5.05;2.65;;;;;;;15.71;56.06;99455.66;5099118;27;20497;-74
2023/09/08 05:52:29;;;;;;;10.60;3.03;;;;;;;16.15;54.92;99454.88;5099074;27;20041;-73
2023/09/08 05:54:55;;;;;;;3.13;2.08;;;;;;;16.76;53.28;99446.19;5082125;27;20053;-73
2023/09/08 05:57:20;;;;;;;2.30;2.10;;;;;;;17.68;51.23;99443.91;5081456;27;20051;-73
2023/09/08 05:59:46;;;;;;;4.55;2.63;;;;;;;18.50;48.97;99426.19;5098965;27;20046;-74
2023/09/08 06:02:11;;;;;;;4.57;2.47;;;;;;;19.55;46.91;99447.03;5116660;27;20042;-72
2023/09/08 06:04:37;;;;;;;4.03;1.98;;;;;;;20.30;45.17;99425.84;5097993;27;20039;-71
2023/09/08 06:07:03;;;;;;;3.03;1.90;;;;;;;20.87;43.45;99422.81;5098111;27;20050;-72
2023/09/08 06:09:30;;;;;;;3.85;2.65;;;;;;;21.17;42.63;99435.41;5097925;27;20444;-74
2023/09/08 06:11:55;;;;;;;2.92;2.10;;;;;;;21.40;41.71;99429.16;5097068;27;20047;-74
2023/09/08 06:14:21;;;;;;;3.15;1.95;;;;;;;21.15;41.31;99442.03;5098089;27;20523;-74
2023/09/08 06:16:47;;;;;;;7.50;2.45;;;;;;;21.18;41.28;99418.16;5098091;27;20038;-75
2023/09/08 06:19:13;;;;;;;4.18;1.90;;;;;;;21.17;41.23;99410.19;5081212;27;20050;-73
2023/09/08 06:21:38;;;;;;;4.22;2.17;;;;;;;21.18;41.10;99415.47;5080846;27;20054;-73
2023/09/08 06:24:05;;;;;;;3.65;2.85;;;;;;;21.40;40.47;99412.88;5080570;27;20046;-71
2023/09/08 06:26:30;;;;;;;3.80;2.70;;;;;;;21.54;39.97;99404.78;5097832;27;20435;-72
2023/09/08 06:28:56;;;;;;;6.05;3.30;;;;;;;21.39;39.73;99401.19;5098216;27;20053;-72
2023/09/08 06:31:22;;;;;;;6.80;3.33;;;;;;;21.01;40.22;99390.31;5080456;27;20046;-72
2023/09/08 06:33:51;;;;;;;3.63;2.65;;;;;;;20.70;41.07;99415.78;5117627;27;20054;-72
2023/09/08 06:36:16;;;;;;;5.75;3.08;;;;;;;20.57;41.06;99400.13;5081613;27;20053;-71
2023/09/08 06:38:42;;;;;;;5.07;3.42;;;;;;;20.61;40.98;99386.06;5097959;27;20420;-73
2023/09/08 06:41:11;;;;;;;6.80;3.45;;;;;;;20.57;40.89;99411.81;5097653;27;20148;-72
2023/09/08 06:43:36;;;;;;;4.47;3.40;;;;;;;20.38;40.90;99385.19;5098488;27;20042;-71
2023/09/08 06:46:07;;;;;;;5.95;3.38;;;;;;;20.09;40.84;99379.59;5097634;27;20038;-73
2023/09/08 06:48:33;;;;;;;5.80;3.22;;;;;;;19.65;41.67;99380.06;5097382;27;20480;-73
2023/09/08 06:50:58;;;;;;;4.45;2.85;;;;;;;19.20;42.39;99386.06;5063208;27;20053;-74
2023/09/08 06:53:25;;;;;;;3.63;2.65;;;;;;;18.79;43.16;99396.88;5094706;27;20489;-73
2023/09/08 06:55:50;;;;;;;4.82;3.78;;;;;;;18.54;43.90;99381.63;5097471;27;20051;-73
2023/09/08 06:58:16;;;;;;;5.38;3.22;;;;;;;18.26;43.95;99389.19;5115482;27;20408;-74
2023/09/08 07:00:42;;;;;;;4.28;2.85;;;;;;;18.03;44.31;99377.31;5097161;27;20035;-74
2023/09/08 07:03:08;;;;;;;6.15;2.97;;;;;;;17.80;44.98;99381.59;5097533;27;20587;-73
2023/09/08 07:05:34;;;;;;;6.55;3.38;;;;;;;17.86;45.24;99397.13;5093525;27;20050;-73
2023/09/08 07:07:59;;;;;;;5.47;2.55;;;;;;;17.94;44.68;99357.56;5095253;27;20062;-74
2023/09/08 07:10:24;;;;;;;9.70;2.35;;;;;;;18.43;44.35;99352.25;5094271;27;20043;-74
2023/09/08 07:12:50;;;;;;;2.95;1.80;;;;;;;19.02;43.27;99359.25;5094032;27;20069;-76
2023/09/08 07:15:16;;;;;;;3.03;2.40;;;;;;;19.58;42.10;99350.19;5095789;28;20381;-71
2023/09/08 07:17:42;;;;;;;2.35;2.03;;;;;;;20.53;41.12;99342.78;5076471;28;20055;-73
2023/09/08 07:20:08;;;;;;;5.45;1.65;;;;;;;21.74;38.76;99342.66;5076219;28;20047;-73
2023/09/08 07:22:33;;;;;;;3.80;1.75;;;;;;;23.18;36.46;99335.22;5106650;27;20093;-73
2023/09/08 07:24:59;;;;;;;6.72;2.55;;;;;;;24.84;33.90;99345.81;5063154;27;20045;-74
2023/09/08 07:27:25;;;;;;;2.53;2.15;;;;;;;26.93;31.35;99327.34;5115586;27;20038;-74
2023/09/08 07:29:50;;;;;;;3.15;2.35;;;;;;;29.26;27.48;99317.66;5097142;27;20185;-74
2023/09/08 07:32:16;;;;;;;6.03;2.15;;;;;;;31.18;25.57;99309.75;5080511;27;20050;-74
2023/09/08 07:34:41;;;;;;;6.07;2.22;;;;;;;32.80;23.87;99305.50;5097360;27;20408;-75
2023/09/08 07:37:07;;;;;;;5.60;3.33;;;;;;;33.57;22.50;99306.94;5097329;27;20054;-75
2023/09/08 07:39:32;;;;;;;2.22;2.03;;;;;;;34.02;21.91;99290.59;5096720;27;20049;-73
2023/09/08 07:41:58;;;;;;;3.75;2.67;;;;;;;34.52;21.19;99314.03;5097195;27;20046;-75
2023/09/08 07:44:24;;;;;;;3.28;2.90;;;;;;;34.57;21.24;99291.88;5097194;27;20046;-74
2023/09/08 07:46:51;;;;;;;7.15;2.70;;;;;;;34.76;20.70;99287.50;5096989;27;20412;-75
2023/09/08 07:49:18;;;;;;;8.85;4.22;;;;;;;35.10;20.47;99306.34;5114948;27;20226;-74
2023/09/08 07:51:43;;;;;;;4.38;3.35;;;;;;;35.43;19.78;99280.00;5107316;27;20049;-74
2023/09/08 07:54:09;;;;;;;2.97;2.78;;;;;;;35.57;19.58;99283.81;5100410;27;20058;-75
2023/09/08 07:56:34;;;;;;;3.80;3.50;;;;;;;34.87;20.02;99268.94;5100653;27;20651;-73
2023/09/08 07:58:59;;;;;;;4.00;3.60;;;;;;;34.15;20.68;99275.41;5100080;27;20422;-75
2023/09/08 08:01:24;;;;;;;4.30;3.42;;;;;;;33.09;20.95;99275.63;5100863;27;20046;-75
2023/09/08 08:03:50;;;;;;;5.53;3.17;;;;;;;31.91;21.63;99302.28;5080417;27;20047;-77
2023/09/08 08:06:15;;;;;;;4.55;3.10;;;;;;;31.44;22.06;99266.06;5099588;27;20485;-75
2023/09/08 08:08:40;;;;;;;5.65;3.80;;;;;;;32.41;21.72;99250.44;5080696;27;20560;-75
2023/09/08 08:11:17;;;;;;;3.47;3.20;;;;;;;33.31;20.62;99270.84;5099217;27;20057;-75
2023/09/08 08:13:43;;;;;;;3.92;3.33;;;;;;;33.53;20.72;99254.94;5080245;27;20050;-75
2023/09/08 08:16:09;;;;;;;3.38;3.03;;;;;;;35.16;19.45;99247.84;5098566;27;20058;-77
2023/09/08 08:18:35;;;;;;;4.22;3.42;;;;;;;37.00;18.00;99234.72;5119020;27;20505;-74
2023/09/08 08:21:03;;;;;;;4.13;3.83;;;;;;;37.61;17.40;99229.34;5119487;27;20046;-75
2023/09/08 08:23:28;;;;;;;3.55;3.30;;;;;;;38.27;16.81;99186.75;5099850;27;20053;-73
2023/09/08 08:25:53;;;;;;;7.40;3.22;;;;;;;38.68;16.63;99236.28;5118854;27;20065;-75
2023/09/08 08:28:18;;;;;;;3.65;3.35;;;;;;;37.54;16.88;99228.06;5118858;27;20042;-75
2023/09/08 08:30:43;;;;;;;4.05;3.10;;;;;;;36.13;17.80;99226.16;5118980;27;20511;-75
2023/09/08 08:33:09;;;;;;;4.13;3.10;;;;;;;34.56;18.90;99201.59;5099963;27;20054;-73
2023/09/08 08:35:34;;;;;;;4.32;3.20;;;;;;;33.07;20.22;99206.84;5099337;27;20051;-73
2023/09/08 08:38:00;;;;;;;5.97;3.42;;;;;;;31.72;21.64;99194.25;5100177;27;20041;-73
2023/09/08 08:40:26;;;;;;;5.97;3.13;;;;;;;30.25;22.62;99195.56;5118770;27;20047;-75
2023/09/08 08:42:58;;;;;;;3.88;2.50;;;;;;;28.96;24.20;99188.75;5100090;27;20042;-75
2023/09/08 08:45:24;;;;;;;3.58;2.47;;;;;;;27.21;25.99;99204.53;5099449;27;20046;-73
2023/09/08 08:47:51;;;;;;;4.25;2.80;;;;;;;25.84;27.52;99212.78;5118535;27;20401;-73
2023/09/08 08:50:17;;;;;;;9.52;2.80;;;;;;;25.05;28.43;99207.59;5118326;27;20050;-73
2023/09/08 08:52:43;;;;;;;3.80;2.30;;;;;;;24.98;28.83;99206.75;5097733;27;20039;-74
2023/09/08 08:55:09;;;;;;;2.60;2.10;;;;;;;24.69;29.53;99188.97;5097581;27;20043;-73
2023/09/08 08:57:36;;;;;;;6.55;2.53;;;;;;;24.03;30.01;99200.63;5097704;27;20042;-73
2023/09/08 09:00:06;;;;;;;5.63;2.17;;;;;;;23.36;31.30;99197.88;5097550;27;20051;-73
2023/09/08 09:02:33;;;;;;;5.38;3.78;;;;;;;22.79;32.55;99227.03;5079656;27;20050;-75
2023/09/08 09:04:59;;;;;;;3.05;2.33;;;;;;;22.41;33.22;99190.34;5079156;27;20073;-75
2023/09/08 09:07:24;;;;;;;5.13;2.05;;;;;;;21.96;34.35;99219.53;5097204;27;20055;-75
2023/09/08 09:09:51;;;;;;;7.20;2.50;;;;;;;21.68;34.72;99200.44;5109790;27;20035;-74
2023/09/08 09:12:17;;;;;;;2.20;2.00;;;;;;;21.58;35.42;99185.50;5099641;27;20057;-75
2023/09/08 09:14:50;;;;;;;3.42;2.28;;;;;;;21.41;35.85;99195.75;5118200;27;20053;-76
2023/09/08 09:17:15;;;;;;;4.03;2.60;;;;;;;21.22;36.07;99191.72;5118061;27;20043;-75
2023/09/08 09:19:41;;;;;;;6.97;3.42;;;;;;;21.17;36.65;99196.84;5117823;27;20057;-74
2023/09/08 09:22:06;;;;;;;6.80;3.03;;;;;;;21.07;36.75;99184.63;5117893;27;20409;-72
2023/09/08 09:24:46;;;;;;;5.88;3.15;;;;;;;21.03;37.73;99200.41;5117596;27;20042;-73
2023/09/08 09:27:12;;;;;;;4.40;2.42;;;;;;;20.73;37.88;99228.53;5082064;27;20050;-73
2023/09/08 09:29:46;;;;;;;4.38;2.38;;;;;;;20.69;38.59;99202.81;5117469;27;20046;-74
2023/09/08 09:32:12;;;;;;;2.13;1.92;;;;;;;20.54;38.54;99184.66;5117695;27;20050;-74
2023/09/08 09:34:52;;;;;;;3.63;2.33;;;;;;;20.64;38.97;99190.69;5117417;27;20045;-74
2023/09/08 09:37:18;;;;;;;3.17;2.10;;;;;;;20.53;38.86;99203.84;5118117;27;20492;-75
2023/09/08 09:39:51;;;;;;;3.88;2.25;;;;;;;20.70;39.06;99177.41;5117348;27;20420;-73
2023/09/08 09:42:17;;;;;;;4.18;2.25;;;;;;;20.96;38.88;99177.81;5117286;27;20396;-73
2023/09/08 09:44:42;;;;;;;4.38;2.50;;;;;;;21.45;38.36;99188.03;5117657;27;20047;-72
2023/09/08 09:47:09;;;;;;;5.88;2.88;;;;;;;21.73;37.91;99186.31;5117301;27;20038;-72
2023/09/08 09:49:45;;;;;;;3.70;2.33;;;;;;;21.92;37.84;99179.38;5117414;27;20049;-74
2023/09/08 09:52:15;;;;;;;7.53;3.60;;;;;;;21.67;37.56;99176.22;5116851;27;20400;-74
2023/09/08 09:54:44;;;;;;;4.55;2.70;;;;;;;21.51;38.58;99174.59;5117599;27;20058;-74
2023/09/08 09:57:13;;;;;;;6.32;2.70;;;;;;;21.26;38.59;99173.22;5099499;27;20046;-75
2023/09/08 09:59:42;;;;;;;4.32;2.63;;;;;;;21.04;39.13;99175.00;5099214;27;20050;-75
2023/09/08 10:02:13;;;;;;;6.45;2.35;;;;;;;20.87;39.82;99182.47;5099422;27;20042;-76
2023/09/08 10:04:42;;;;;;;4.10;2.63;;;;;;;20.71;40.13;99163.69;5117021;27;20047;-78
2023/09/08 10:07:08;;;;;;;8.82;2.85;;;;;;;20.74;39.95;99167.91;5117649;27;20050;-75
2023/09/08 10:09:35;;;;;;;8.55;3.08;;;;;;;20.82;39.68;99170.50;5117343;27;20061;-76
2023/09/08 10:12:04;;;;;;;5.13;3.40;;;;;;;20.70;40.02;99163.88;5098632;27;20042;-75
2023/09/08 10:14:36;;;;;;;10.52;3.22;;;;;;;20.40;40.61;99171.97;5116753;27;20034;-75
2023/09/08 10:17:02;;;;;;;5.68;2.13;;;;;;;19.87;41.29;99187.22;5116772;27;20551;-76
2023/09/08 10:19:28;;;;;;;3.92;1.98;;;;;;;19.48;42.04;99165.69;5116991;27;20075;-75
2023/09/08 10:21:59;;;;;;;7.93;2.35;;;;;;;19.14;43.16;99163.31;5094743;27;20050;-75
2023/09/08 10:24:27;;;;;;;6.35;2.50;;;;;;;18.83;43.92;99155.16;5098354;27;20050;-74
2023/09/08 10:27:02;;;;;;;6.97;2.40;;;;;;;18.69;44.75;99176.63;5116604;27;20484;-74
2023/09/08 10:29:31;;;;;;;3.53;2.25;;;;;;;18.30;45.23;99195.38;5097485;27;20861;-72
2023/09/08 10:31:57;;;;;;;4.07;2.28;;;;;;;18.01;46.13;99160.84;5114792;27;20045;-74
2023/09/08 10:34:24;;;;;;;6.20;2.08;;;;;;;17.74;46.73;99178.16;5096833;27;20823;-73
2023/09/08 10:36:49;;;;;;;6.80;2.25;;;;;;;17.64;47.50;99170.22;5097811;27;20914;-73
2023/09/08 10:39:27;;;;;;;7.57;2.45;;;;;;;17.76;47.95;99173.47;5097535;27;20145;-73
2023/09/08 10:42:20;;;;;;;7.80;2.38;;;;;;;17.90;47.34;99191.69;5095530;27;20476;-73
2023/09/08 10:44:51;;;;;;;6.10;2.25;;;;;;;18.02;47.08;99176.84;5095660;27;20041;-73
2023/09/08 10:47:30;;;;;;;4.38;2.50;;;;;;;18.32;46.51;99171.78;5095599;27;20664;-73
2023/09/08 10:49:57;;;;;;;5.30;2.30;;;;;;;18.46;45.75;99163.84;5108422;27;20042;-72
2023/09/08 10:52:23;;;;;;;7.65;2.28;;;;;;;18.51;45.80;99176.78;5077922;27;20053;-73
2023/09/08 10:54:53;;;;;;;3.53;2.50;;;;;;;18.57;45.92;99172.59;5115824;27;20043;-75
2023/09/08 10:57:22;;;;;;;6.10;2.40;;;;;;;18.51;45.22;99182.19;5094219;27;20783;-75
2023/09/08 10:59:55;;;;;;;3.58;2.30;;;;;;;18.35;45.94;99172.28;5078777;27;20049;-72
2023/09/08 11:02:47;;;;;;;9.93;2.30;;;;;;;18.16;45.96;99174.50;5116439;27;20050;-74
2023/09/08 11:05:15;;;;;;;3.80;2.00;;;;;;;17.69;46.73;99170.59;5114519;27;20053;-73
2023/09/08 11:07:45;;;;;;;6.93;2.17;;;;;;;17.43;47.18;99170.66;5102298;27;20054;-73
2023/09/08 11:10:11;;;;;;;4.63;3.17;;;;;;;17.26;47.61;99174.34;5073060;28;20050;-72
2023/09/08 11:12:36;;;;;;;7.22;2.50;;;;;;;17.26;48.00;99184.28;5110301;27;20050;-72
2023/09/08 11:15:08;;;;;;;4.68;2.60;;;;;;;17.52;48.49;99176.06;5116331;27;20039;-74
2023/09/08 11:17:35;;;;;;;6.45;2.58;;;;;;;17.84;47.19;99178.84;5093581;27;20035;-73
2023/09/08 11:20:10;;;;;;;3.55;2.30;;;;;;;18.11;46.75;99165.06;5116510;27;20042;-75
2023/09/08 11:22:38;;;;;;;6.10;2.63;;;;;;;18.29;46.64;99178.34;5092787;27;20386;-74
2023/09/08 11:25:06;;;;;;;6.72;3.00;;;;;;;18.38;45.89;99177.34;5096678;27;20485;-74
2023/09/08 11:27:32;;;;;;;8.68;3.47;;;;;;;18.37;45.93;99186.47;5118836;27;20058;-75
2023/09/08 11:29:58;;;;;;;4.50;2.97;;;;;;;18.42;46.08;99183.22;5120127;27;20054;-73
2023/09/08 11:32:24;;;;;;;6.32;2.42;;;;;;;18.45;45.66;99166.69;5118783;27;20042;-72